createdAt,value
2018-10-04T00:00:58.406Z,0.00
2018-10-04T00:01:58.391Z,0.00
2018-10-04T00:02:58.366Z,0.00
2018-10-04T00:03:58.355Z,0.00
2018-10-04T00:04:58.325Z,0.00
2018-10-04T00:05:58.303Z,0.00
2018-10-04T00:06:58.283Z,0.00
2018-10-04T00:07:58.267Z,0.00
2018-10-04T00:08:58.239Z,0.00
2018-10-04T00:09:58.223Z,0.00
2018-10-04T00:10:58.205Z,0.00
2018-10-04T00:11:58.179Z,0.00
2018-10-04T00:12:58.159Z,0.00
2018-10-04T00:13:58.138Z,0.00
2018-10-04T00:14:58.117Z,0.00
2018-10-04T00:15:58.096Z,0.00
2018-10-04T00:16:58.079Z,0.00
2018-10-04T00:17:58.055Z,0.00
2018-10-04T00:18:58.049Z,0.00
2018-10-04T00:19:58.013Z,0.00
2018-10-04T00:20:57.995Z,0.00
2018-10-04T00:21:57.973Z,0.00
2018-10-04T00:22:57.952Z,0.00
2018-10-04T00:23:57.933Z,0.00
2018-10-04T00:24:57.911Z,0.00
2018-10-04T00:25:57.888Z,0.00
2018-10-04T00:26:57.873Z,0.00
2018-10-04T00:27:57.847Z,0.00
2018-10-04T00:28:57.826Z,0.00
2018-10-04T00:29:57.808Z,0.00
2018-10-04T00:30:57.790Z,0.00
2018-10-04T00:31:57.767Z,0.00
2018-10-04T00:32:57.744Z,0.00
2018-10-04T00:33:57.725Z,0.00
2018-10-04T00:34:57.701Z,0.00
2018-10-04T00:35:57.680Z,0.00
2018-10-04T00:36:57.664Z,0.00
2018-10-04T00:37:57.641Z,0.00
2018-10-04T00:38:57.619Z,0.00
2018-10-04T00:39:57.600Z,0.00
2018-10-04T00:40:57.578Z,0.00
2018-10-04T00:41:57.557Z,0.00
2018-10-04T00:42:57.537Z,0.00
2018-10-04T00:43:57.519Z,0.00
2018-10-04T00:44:57.495Z,0.00
2018-10-04T00:45:57.550Z,0.00
2018-10-04T00:46:57.453Z,0.00
2018-10-04T00:47:57.434Z,0.00
2018-10-04T00:48:57.415Z,0.00
2018-10-04T00:49:57.405Z,0.00
2018-10-04T00:50:57.374Z,0.00
2018-10-04T00:51:57.352Z,0.00
2018-10-04T00:52:57.332Z,0.00
2018-10-04T00:53:57.309Z,0.00
2018-10-04T00:54:57.289Z,0.00
2018-10-04T00:55:57.279Z,0.00
2018-10-04T00:56:57.246Z,0.00
2018-10-04T00:57:57.239Z,0.00
2018-10-04T00:58:57.210Z,0.00
2018-10-04T00:59:57.187Z,0.00
2018-10-04T01:00:57.167Z,0.00
2018-10-04T01:01:57.144Z,0.00
2018-10-04T01:02:57.126Z,0.00
2018-10-04T01:03:57.105Z,0.00
2018-10-04T01:04:57.092Z,0.00
2018-10-04T01:05:57.062Z,0.00
2018-10-04T01:06:57.043Z,0.00
2018-10-04T01:07:57.032Z,0.00
2018-10-04T01:08:57.008Z,0.00
2018-10-04T01:09:56.980Z,0.00
2018-10-04T01:10:56.959Z,0.00
2018-10-04T01:11:56.940Z,0.00
2018-10-04T01:12:56.919Z,0.00
2018-10-04T01:13:56.897Z,0.00
2018-10-04T01:14:56.877Z,0.00
2018-10-04T01:15:56.855Z,0.00
2018-10-04T01:16:56.835Z,0.00
2018-10-04T01:17:56.817Z,0.00
2018-10-04T01:18:56.804Z,0.00
2018-10-04T01:19:56.778Z,0.00
2018-10-04T01:20:56.750Z,0.00
2018-10-04T01:21:56.733Z,0.00
2018-10-04T01:22:56.710Z,0.00
2018-10-04T01:23:56.690Z,0.00
2018-10-04T01:24:56.677Z,0.00
2018-10-04T01:25:56.653Z,0.00
2018-10-04T01:26:56.629Z,0.00
2018-10-04T01:27:56.606Z,0.00
2018-10-04T01:28:56.587Z,0.00
2018-10-04T01:29:56.568Z,0.00
2018-10-04T01:30:56.548Z,0.00
2018-10-04T01:31:56.526Z,0.00
2018-10-04T01:32:56.504Z,0.00
2018-10-04T01:33:56.482Z,0.00
2018-10-04T01:34:56.462Z,0.00
2018-10-04T01:35:56.447Z,0.00
2018-10-04T01:36:56.429Z,0.00
2018-10-04T01:37:56.402Z,0.00
2018-10-04T01:38:56.378Z,0.00
2018-10-04T01:39:56.359Z,0.00
2018-10-04T01:40:56.338Z,0.00
2018-10-04T01:41:56.322Z,0.00
2018-10-04T01:42:56.297Z,0.00
2018-10-04T01:43:56.275Z,0.00
2018-10-04T01:44:56.256Z,0.00
2018-10-04T01:45:56.234Z,0.00
2018-10-04T01:46:56.214Z,0.00
2018-10-04T01:47:56.196Z,0.00
2018-10-04T01:48:56.171Z,0.00
2018-10-04T01:49:56.152Z,0.00
2018-10-04T01:50:56.129Z,0.00
2018-10-04T01:51:56.114Z,0.00
2018-10-04T01:52:56.090Z,0.00
2018-10-04T01:53:56.068Z,0.00
2018-10-04T01:54:56.046Z,0.00
2018-10-04T01:55:56.027Z,0.00
2018-10-04T01:56:56.005Z,0.00
2018-10-04T01:57:55.985Z,0.00
2018-10-04T01:58:55.968Z,0.00
2018-10-04T01:59:55.944Z,0.00
2018-10-04T02:00:55.927Z,0.00
2018-10-04T02:01:55.904Z,0.00
2018-10-04T02:02:55.883Z,0.00
2018-10-04T02:03:55.860Z,0.00
2018-10-04T02:04:55.840Z,0.00
2018-10-04T02:05:55.820Z,0.00
2018-10-04T02:06:55.801Z,0.00
2018-10-04T02:07:55.793Z,0.00
2018-10-04T02:08:55.756Z,0.00
2018-10-04T02:09:55.736Z,0.00
2018-10-04T02:10:55.714Z,0.00
2018-10-04T02:11:55.745Z,0.00
2018-10-04T02:12:55.674Z,0.00
2018-10-04T02:13:55.652Z,0.00
2018-10-04T02:14:55.643Z,0.00
2018-10-04T02:15:55.615Z,0.00
2018-10-04T02:16:55.597Z,0.00
2018-10-04T02:17:55.571Z,0.00
2018-10-04T02:18:55.561Z,0.00
2018-10-04T02:19:55.528Z,0.00
2018-10-04T02:20:55.508Z,0.00
2018-10-04T02:21:55.486Z,0.00
2018-10-04T02:22:55.463Z,0.00
2018-10-04T02:23:55.443Z,0.00
2018-10-04T02:24:55.421Z,0.00
2018-10-04T02:25:55.399Z,0.00
2018-10-04T02:26:55.380Z,0.00
2018-10-04T02:27:55.359Z,0.00
2018-10-04T02:28:55.336Z,0.00
2018-10-04T02:29:55.317Z,0.00
2018-10-04T02:30:55.297Z,0.00
2018-10-04T02:31:55.278Z,0.00
2018-10-04T02:32:55.259Z,0.00
2018-10-04T02:33:55.237Z,0.00
2018-10-04T02:34:55.215Z,0.00
2018-10-04T02:35:55.200Z,0.00
2018-10-04T02:36:55.177Z,0.00
2018-10-04T02:37:55.164Z,0.00
2018-10-04T02:38:55.138Z,0.00
2018-10-04T02:39:55.113Z,0.00
2018-10-04T02:40:55.086Z,0.00
2018-10-04T02:41:55.070Z,0.00
2018-10-04T02:42:55.047Z,0.00
2018-10-04T02:43:55.024Z,0.00
2018-10-04T02:44:55.003Z,0.00
2018-10-04T02:45:54.979Z,0.00
2018-10-04T02:46:54.965Z,0.00
2018-10-04T02:47:54.977Z,0.00
2018-10-04T02:48:54.993Z,0.00
2018-10-04T02:49:54.898Z,0.00
2018-10-04T02:50:54.884Z,0.00
2018-10-04T02:51:54.858Z,0.00
2018-10-04T02:52:54.842Z,0.00
2018-10-04T02:53:54.822Z,0.00
2018-10-04T02:54:54.794Z,0.00
2018-10-04T02:55:54.773Z,0.00
2018-10-04T02:56:54.751Z,0.00
2018-10-04T02:57:54.732Z,0.00
2018-10-04T02:58:54.713Z,0.00
2018-10-04T02:59:54.715Z,0.00
2018-10-04T03:00:54.671Z,0.00
2018-10-04T03:01:54.656Z,0.00
2018-10-04T03:02:54.631Z,0.00
2018-10-04T03:03:54.607Z,0.00
2018-10-04T03:04:54.586Z,0.00
2018-10-04T03:05:54.565Z,0.00
2018-10-04T03:06:54.547Z,0.00
2018-10-04T03:07:54.524Z,0.00
2018-10-04T03:08:54.503Z,0.00
2018-10-04T03:09:54.483Z,0.00
2018-10-04T03:10:54.462Z,0.00
2018-10-04T03:11:54.441Z,0.00
2018-10-04T03:12:54.418Z,0.00
2018-10-04T03:13:54.399Z,0.00
2018-10-04T03:14:54.379Z,0.00
2018-10-04T03:15:54.357Z,0.00
2018-10-04T03:16:54.337Z,0.00
2018-10-04T03:17:54.315Z,0.00
2018-10-04T03:18:54.295Z,0.00
2018-10-04T03:19:54.288Z,0.00
2018-10-04T03:20:54.256Z,0.00
2018-10-04T03:21:54.233Z,0.00
2018-10-04T03:22:54.213Z,0.00
2018-10-04T03:23:54.196Z,0.00
2018-10-04T03:24:54.169Z,0.00
2018-10-04T03:25:54.148Z,0.00
2018-10-04T03:26:54.133Z,0.00
2018-10-04T03:27:54.110Z,0.00
2018-10-04T03:28:54.085Z,0.00
2018-10-04T03:29:54.085Z,0.00
2018-10-04T03:30:54.057Z,0.00
2018-10-04T03:31:54.029Z,0.00
2018-10-04T03:32:54.004Z,0.00
2018-10-04T03:33:53.981Z,0.00
2018-10-04T03:34:53.966Z,0.00
2018-10-04T03:35:53.941Z,0.00
2018-10-04T03:36:53.919Z,0.00
2018-10-04T03:37:53.900Z,0.00
2018-10-04T03:38:53.879Z,0.00
2018-10-04T03:39:53.856Z,0.00
2018-10-04T03:40:53.835Z,0.00
2018-10-04T03:41:53.816Z,0.00
2018-10-04T03:42:53.796Z,0.00
2018-10-04T03:43:53.775Z,0.00
2018-10-04T03:44:53.757Z,0.00
2018-10-04T03:45:53.740Z,0.00
2018-10-04T03:46:53.711Z,0.00
2018-10-04T03:47:53.691Z,0.00
2018-10-04T03:48:53.672Z,0.00
2018-10-04T03:49:53.653Z,0.00
2018-10-04T03:50:53.642Z,0.00
2018-10-04T03:51:53.619Z,0.00
2018-10-04T03:52:53.590Z,0.00
2018-10-04T03:53:53.575Z,0.00
2018-10-04T03:54:53.546Z,0.00
2018-10-04T03:55:53.533Z,0.00
2018-10-04T03:56:53.504Z,0.00
2018-10-04T03:57:53.487Z,0.00
2018-10-04T03:58:53.466Z,0.00
2018-10-04T03:59:53.446Z,0.00
2018-10-04T04:00:53.427Z,0.00
2018-10-04T04:01:53.405Z,0.00
2018-10-04T04:02:53.387Z,0.00
2018-10-04T04:03:53.392Z,0.00
2018-10-04T04:04:53.342Z,0.00
2018-10-04T04:05:53.322Z,0.00
2018-10-04T04:06:53.309Z,0.00
2018-10-04T04:07:53.284Z,0.00
2018-10-04T04:08:53.259Z,0.00
2018-10-04T04:09:53.239Z,0.00
2018-10-04T04:10:53.217Z,0.00
2018-10-04T04:11:53.315Z,0.00
2018-10-04T04:12:53.176Z,0.00
2018-10-04T04:13:53.157Z,0.00
2018-10-04T04:14:53.139Z,0.00
2018-10-04T04:15:53.117Z,0.00
2018-10-04T04:16:53.096Z,0.00
2018-10-04T04:17:53.072Z,0.00
2018-10-04T04:18:53.054Z,0.00
2018-10-04T04:19:53.033Z,0.00
2018-10-04T04:20:53.020Z,0.00
2018-10-04T04:21:52.999Z,0.00
2018-10-04T04:22:52.970Z,0.00
2018-10-04T04:23:52.954Z,0.00
2018-10-04T04:24:52.931Z,0.00
2018-10-04T04:25:52.909Z,0.00
2018-10-04T04:26:52.888Z,0.00
2018-10-04T04:27:52.874Z,0.00
2018-10-04T04:28:52.849Z,0.00
2018-10-04T04:29:52.826Z,0.00
2018-10-04T04:30:52.892Z,0.00
2018-10-04T04:31:52.856Z,0.00
2018-10-04T04:32:52.819Z,0.00
2018-10-04T04:33:52.745Z,0.00
2018-10-04T04:34:52.725Z,0.00
2018-10-04T04:35:52.703Z,0.00
2018-10-04T04:36:52.684Z,0.00
2018-10-04T04:37:52.661Z,0.00
2018-10-04T04:38:52.641Z,0.00
2018-10-04T04:39:52.621Z,0.00
2018-10-04T04:40:52.663Z,0.00
2018-10-04T04:41:52.581Z,0.00
2018-10-04T04:42:52.559Z,0.00
2018-10-04T04:43:52.538Z,0.00
2018-10-04T04:44:52.521Z,0.00
2018-10-04T04:45:52.496Z,0.00
2018-10-04T04:46:52.479Z,0.00
2018-10-04T04:47:52.454Z,0.00
2018-10-04T04:48:52.438Z,0.00
2018-10-04T04:49:52.415Z,0.00
2018-10-04T04:50:52.395Z,0.00
2018-10-04T04:51:52.374Z,0.00
2018-10-04T04:52:52.418Z,0.00
2018-10-04T04:53:52.332Z,0.00
2018-10-04T04:54:52.313Z,0.00
2018-10-04T04:55:52.293Z,0.00
2018-10-04T04:56:52.271Z,0.00
2018-10-04T04:57:52.252Z,0.00
2018-10-04T04:58:52.233Z,0.00
2018-10-04T04:59:52.213Z,0.00
2018-10-04T05:00:52.196Z,0.00
2018-10-04T05:01:52.168Z,0.00
2018-10-04T05:02:52.154Z,0.00
2018-10-04T05:03:52.127Z,0.00
2018-10-04T05:04:52.106Z,0.00
2018-10-04T05:05:52.085Z,0.00
2018-10-04T05:06:52.066Z,0.00
2018-10-04T05:07:52.044Z,0.00
2018-10-04T05:08:52.023Z,0.00
2018-10-04T05:09:52.000Z,0.00
2018-10-04T05:10:51.981Z,0.00
2018-10-04T05:11:51.961Z,0.00
2018-10-04T05:12:51.939Z,0.00
2018-10-04T05:13:51.920Z,0.00
2018-10-04T05:14:51.900Z,0.00
2018-10-04T05:15:51.910Z,0.00
2018-10-04T05:16:51.858Z,0.00
2018-10-04T05:17:51.837Z,0.00
2018-10-04T05:18:51.816Z,0.00
2018-10-04T05:19:51.796Z,0.00
2018-10-04T05:20:51.777Z,0.00
2018-10-04T05:21:51.768Z,0.00
2018-10-04T05:22:51.733Z,0.00
2018-10-04T05:23:51.717Z,0.00
2018-10-04T05:24:51.692Z,0.00
2018-10-04T05:25:51.676Z,0.00
2018-10-04T05:26:51.652Z,0.00
2018-10-04T05:27:51.633Z,0.00
2018-10-04T05:28:51.610Z,0.00
2018-10-04T05:29:51.588Z,0.00
2018-10-04T05:30:51.568Z,0.00
2018-10-04T05:31:51.548Z,0.00
2018-10-04T05:32:51.527Z,0.00
2018-10-04T05:33:51.504Z,0.00
2018-10-04T05:34:51.486Z,0.00
2018-10-04T05:35:51.470Z,0.00
2018-10-04T05:36:51.503Z,0.00
2018-10-04T05:37:51.423Z,0.00
2018-10-04T05:38:51.402Z,0.00
2018-10-04T05:39:51.380Z,0.00
2018-10-04T05:40:51.360Z,0.00
2018-10-04T05:41:51.340Z,0.00
2018-10-04T05:42:51.321Z,0.00
2018-10-04T05:43:51.300Z,0.00
2018-10-04T05:44:51.330Z,0.00
2018-10-04T05:45:51.263Z,0.00
2018-10-04T05:46:51.237Z,0.00
2018-10-04T05:47:51.217Z,0.00
2018-10-04T05:48:51.195Z,0.00
2018-10-04T05:49:51.175Z,0.00
2018-10-04T05:50:51.154Z,0.00
2018-10-04T05:51:51.132Z,0.00
2018-10-04T05:52:51.150Z,0.00
2018-10-04T05:53:51.096Z,0.00
2018-10-04T05:54:51.072Z,0.00
2018-10-04T05:55:51.051Z,0.00
2018-10-04T05:56:51.029Z,0.00
2018-10-04T05:57:51.016Z,0.00
2018-10-04T05:58:51.036Z,0.00
2018-10-04T05:59:50.969Z,0.00
2018-10-04T06:00:50.953Z,0.00
2018-10-04T06:01:50.928Z,0.00
2018-10-04T06:02:50.909Z,0.00
2018-10-04T06:03:50.888Z,0.00
2018-10-04T06:04:50.975Z,0.00
2018-10-04T06:05:50.848Z,0.00
2018-10-04T06:06:50.824Z,0.00
2018-10-04T06:07:50.805Z,0.00
2018-10-04T06:08:50.782Z,0.00
2018-10-04T06:09:50.763Z,0.00
2018-10-04T06:10:50.741Z,0.00
2018-10-04T06:11:50.722Z,0.00
2018-10-04T06:12:50.700Z,0.00
2018-10-04T06:13:50.680Z,0.00
2018-10-04T06:14:50.730Z,0.00
2018-10-04T06:15:50.643Z,0.00
2018-10-04T06:16:50.629Z,0.00
2018-10-04T06:17:50.597Z,0.00
2018-10-04T06:18:50.618Z,0.00
2018-10-04T06:19:50.556Z,0.00
2018-10-04T06:20:50.533Z,0.00
2018-10-04T06:21:50.533Z,0.00
2018-10-04T06:22:50.492Z,0.00
2018-10-04T06:23:50.472Z,0.00
2018-10-04T06:24:50.451Z,0.00
2018-10-04T06:25:50.433Z,0.00
2018-10-04T06:26:50.412Z,0.00
2018-10-04T06:27:50.393Z,0.00
2018-10-04T06:28:50.370Z,0.00
2018-10-04T06:29:50.349Z,0.00
2018-10-04T06:30:50.329Z,0.00
2018-10-04T06:31:50.311Z,0.00
2018-10-04T06:32:50.289Z,0.00
2018-10-04T06:33:50.270Z,0.00
2018-10-04T06:34:50.284Z,0.00
2018-10-04T06:35:50.226Z,0.00
2018-10-04T06:36:50.207Z,0.00
2018-10-04T06:37:50.185Z,0.00
2018-10-04T06:38:50.170Z,0.00
2018-10-04T06:39:50.142Z,0.00
2018-10-04T06:40:50.173Z,0.00
2018-10-04T06:41:50.099Z,0.00
2018-10-04T06:42:50.082Z,0.00
2018-10-04T06:43:50.061Z,0.00
2018-10-04T06:44:50.039Z,0.00
2018-10-04T06:45:50.019Z,0.00
2018-10-04T06:46:50.029Z,0.00
2018-10-04T06:47:49.978Z,0.00
2018-10-04T06:48:49.960Z,0.00
2018-10-04T06:49:49.939Z,0.00
2018-10-04T06:50:49.962Z,0.00
2018-10-04T06:51:49.913Z,0.00
2018-10-04T06:52:49.876Z,0.00
2018-10-04T06:53:49.853Z,0.00
2018-10-04T06:54:49.836Z,0.00
2018-10-04T06:55:49.815Z,0.00
2018-10-04T06:56:49.792Z,0.00
2018-10-04T06:57:49.843Z,0.00
2018-10-04T06:58:49.752Z,0.00
2018-10-04T06:59:49.731Z,0.00
2018-10-04T07:00:49.710Z,0.00
2018-10-04T07:01:49.688Z,0.00
2018-10-04T07:02:49.673Z,0.00
2018-10-04T07:03:49.711Z,0.00
2018-10-04T07:04:49.628Z,0.00
2018-10-04T07:05:49.610Z,0.00
2018-10-04T07:06:49.588Z,0.00
2018-10-04T07:07:49.567Z,0.00
2018-10-04T07:08:49.544Z,0.00
2018-10-04T07:09:49.530Z,0.00
2018-10-04T07:10:49.505Z,0.00
2018-10-04T07:11:49.488Z,0.00
2018-10-04T07:12:49.464Z,5.63
2018-10-04T07:13:49.442Z,5.63
2018-10-04T07:14:49.428Z,0.00
2018-10-04T07:15:49.407Z,0.00
2018-10-04T07:16:49.381Z,0.00
2018-10-04T07:17:49.370Z,0.00
2018-10-04T07:18:49.339Z,0.00
2018-10-04T07:19:49.319Z,0.00
2018-10-04T07:20:49.375Z,0.00
2018-10-04T07:21:49.279Z,0.00
2018-10-04T07:22:49.258Z,5.63
2018-10-04T07:23:49.243Z,5.63
2018-10-04T07:24:49.219Z,5.63
2018-10-04T07:25:49.195Z,5.63
2018-10-04T07:26:49.181Z,0.00
2018-10-04T07:27:49.165Z,0.00
2018-10-04T07:28:49.134Z,0.00
2018-10-04T07:29:49.116Z,0.00
2018-10-04T07:30:49.093Z,0.00
2018-10-04T07:31:49.202Z,0.00
2018-10-04T07:32:49.055Z,0.00
2018-10-04T07:33:49.039Z,0.00
2018-10-04T07:34:49.043Z,0.00
2018-10-04T07:35:48.993Z,0.00
2018-10-04T07:36:48.976Z,0.00
2018-10-04T07:37:48.951Z,0.00
2018-10-04T07:38:48.931Z,0.00
2018-10-04T07:39:48.912Z,0.00
2018-10-04T07:40:48.894Z,0.00
2018-10-04T07:41:48.911Z,0.00
2018-10-04T07:42:49.041Z,0.00
2018-10-04T07:43:48.829Z,0.00
2018-10-04T07:44:48.815Z,0.00
2018-10-04T07:45:48.796Z,0.00
2018-10-04T07:46:48.770Z,0.00
2018-10-04T07:47:48.762Z,0.00
2018-10-04T07:48:48.854Z,0.00
2018-10-04T07:49:48.706Z,0.00
2018-10-04T07:50:48.688Z,0.00
2018-10-04T07:51:48.667Z,0.00
2018-10-04T07:52:48.646Z,0.00
2018-10-04T07:53:48.635Z,0.00
2018-10-04T07:54:48.608Z,0.00
2018-10-04T07:55:48.588Z,0.00
2018-10-04T07:56:48.570Z,0.00
2018-10-04T07:57:48.545Z,0.00
2018-10-04T07:58:48.528Z,0.00
2018-10-04T07:59:48.508Z,0.00
2018-10-04T08:00:48.489Z,0.00
2018-10-04T08:01:48.464Z,0.00
2018-10-04T08:02:48.446Z,0.00
2018-10-04T08:03:48.431Z,0.00
2018-10-04T08:04:48.402Z,0.00
2018-10-04T08:05:48.500Z,0.00
2018-10-04T08:06:48.454Z,0.00
2018-10-04T08:07:48.352Z,0.00
2018-10-04T08:08:48.339Z,0.00
2018-10-04T08:09:48.302Z,0.00
2018-10-04T08:10:48.283Z,0.00
2018-10-04T08:11:48.262Z,0.00
2018-10-04T08:12:48.245Z,0.00
2018-10-04T08:13:48.217Z,0.00
2018-10-04T08:14:48.200Z,0.00
2018-10-04T08:15:48.180Z,0.00
2018-10-04T08:16:48.161Z,0.00
2018-10-04T08:17:48.136Z,5.63
2018-10-04T08:18:48.118Z,5.63
2018-10-04T08:19:48.117Z,5.63
2018-10-04T08:20:48.078Z,5.63
2018-10-04T08:21:48.060Z,5.63
2018-10-04T08:22:48.043Z,5.63
2018-10-04T08:23:48.017Z,5.63
2018-10-04T08:24:47.997Z,5.63
2018-10-04T08:25:47.978Z,5.63
2018-10-04T08:26:47.956Z,5.63
2018-10-04T08:27:47.936Z,5.63
2018-10-04T08:28:47.915Z,5.63
2018-10-04T08:29:47.892Z,5.63
2018-10-04T08:30:47.875Z,5.63
2018-10-04T08:31:47.854Z,5.63
2018-10-04T08:32:47.833Z,11.25
2018-10-04T08:33:47.815Z,11.25
2018-10-04T08:34:47.799Z,11.25
2018-10-04T08:35:47.776Z,11.25
2018-10-04T08:36:47.759Z,11.25
2018-10-04T08:37:47.731Z,11.25
2018-10-04T08:38:47.725Z,11.25
2018-10-04T08:39:47.692Z,11.25
2018-10-04T08:40:47.671Z,11.25
2018-10-04T08:41:47.656Z,11.25
2018-10-04T08:42:47.642Z,11.25
2018-10-04T08:43:47.616Z,11.25
2018-10-04T08:44:47.589Z,16.88
2018-10-04T08:45:47.569Z,16.88
2018-10-04T08:46:47.554Z,16.88
2018-10-04T08:47:47.533Z,16.88
2018-10-04T08:48:47.511Z,11.25
2018-10-04T08:49:47.500Z,11.25
2018-10-04T08:50:47.470Z,11.25
2018-10-04T08:51:47.452Z,11.25
2018-10-04T08:52:47.430Z,11.25
2018-10-04T08:53:47.409Z,11.25
2018-10-04T08:54:47.388Z,11.25
2018-10-04T08:55:47.370Z,11.25
2018-10-04T08:56:47.346Z,11.25
2018-10-04T08:57:47.330Z,11.25
2018-10-04T08:58:47.309Z,11.25
2018-10-04T08:59:47.291Z,11.25
2018-10-04T09:00:47.270Z,11.25
2018-10-04T09:01:47.245Z,11.25
2018-10-04T09:02:47.227Z,16.88
2018-10-04T09:03:47.209Z,16.88
2018-10-04T09:04:47.186Z,16.88
2018-10-04T09:05:47.167Z,16.88
2018-10-04T09:06:47.165Z,16.88
2018-10-04T09:07:47.159Z,16.88
2018-10-04T09:08:47.107Z,16.88
2018-10-04T09:09:47.086Z,16.88
2018-10-04T09:10:47.067Z,16.88
2018-10-04T09:11:47.046Z,16.88
2018-10-04T09:12:47.029Z,16.88
2018-10-04T09:13:47.008Z,16.88
2018-10-04T09:14:46.988Z,16.88
2018-10-04T09:15:46.969Z,16.88
2018-10-04T09:16:46.951Z,16.88
2018-10-04T09:17:46.929Z,16.88
2018-10-04T09:18:46.907Z,16.88
2018-10-04T09:19:46.895Z,16.88
2018-10-04T09:20:46.865Z,16.88
2018-10-04T09:21:46.847Z,16.88
2018-10-04T09:22:46.826Z,16.88
2018-10-04T09:23:46.808Z,16.88
2018-10-04T09:24:46.786Z,16.88
2018-10-04T09:25:46.771Z,16.88
2018-10-04T09:26:46.765Z,16.88
2018-10-04T09:27:46.729Z,16.88
2018-10-04T09:28:46.706Z,16.88
2018-10-04T09:29:46.691Z,16.88
2018-10-04T09:30:46.667Z,16.88
2018-10-04T09:31:46.648Z,16.88
2018-10-04T09:32:46.628Z,16.88
2018-10-04T09:33:46.608Z,16.88
2018-10-04T09:34:46.591Z,16.88
2018-10-04T09:35:46.570Z,16.88
2018-10-04T09:36:46.548Z,16.88
2018-10-04T09:37:46.533Z,16.88
2018-10-04T09:38:46.509Z,16.88
2018-10-04T09:39:46.493Z,16.88
2018-10-04T09:40:46.468Z,16.88
2018-10-04T09:41:46.449Z,16.88
2018-10-04T09:42:46.429Z,16.88
2018-10-04T09:43:46.413Z,16.88
2018-10-04T09:44:46.392Z,16.88
2018-10-04T09:45:46.370Z,16.88
2018-10-04T09:46:46.355Z,16.88
2018-10-04T09:47:46.329Z,16.88
2018-10-04T09:48:46.310Z,11.25
2018-10-04T09:49:46.293Z,11.25
2018-10-04T09:50:46.272Z,11.25
2018-10-04T09:51:46.252Z,11.25
2018-10-04T09:52:46.231Z,11.25
2018-10-04T09:53:46.287Z,11.25
2018-10-04T09:54:46.194Z,11.25
2018-10-04T09:55:46.174Z,11.25
2018-10-04T09:56:46.156Z,11.25
2018-10-04T09:57:46.136Z,11.25
2018-10-04T09:58:46.114Z,11.25
2018-10-04T09:59:46.158Z,11.25
2018-10-04T10:00:46.072Z,11.25
2018-10-04T10:01:46.051Z,16.88
2018-10-04T10:02:46.034Z,16.88
2018-10-04T10:03:46.014Z,16.88
2018-10-04T10:04:45.998Z,16.88
2018-10-04T10:05:45.978Z,16.88
2018-10-04T10:06:45.960Z,16.88
2018-10-04T10:07:45.985Z,16.88
2018-10-04T10:08:45.928Z,16.88
2018-10-04T10:09:45.896Z,16.88
2018-10-04T10:10:45.880Z,16.88
2018-10-04T10:11:45.928Z,16.88
2018-10-04T10:12:45.833Z,16.88
2018-10-04T10:13:45.814Z,16.88
2018-10-04T10:14:45.795Z,16.88
2018-10-04T10:15:45.775Z,16.88
2018-10-04T10:16:45.753Z,16.88
2018-10-04T10:17:45.734Z,16.88
2018-10-04T10:18:45.716Z,16.88
2018-10-04T10:19:45.694Z,16.88
2018-10-04T10:20:45.674Z,16.88
2018-10-04T10:21:45.665Z,16.88
2018-10-04T10:22:45.644Z,16.88
2018-10-04T10:23:45.616Z,16.88
2018-10-04T10:24:45.597Z,16.88
2018-10-04T10:25:45.576Z,16.88
2018-10-04T10:26:45.557Z,16.88
2018-10-04T10:27:45.538Z,16.88
2018-10-04T10:28:45.518Z,16.88
2018-10-04T10:29:45.499Z,16.88
2018-10-04T10:30:45.481Z,16.88
2018-10-04T10:31:45.461Z,16.88
2018-10-04T10:32:45.447Z,16.88
2018-10-04T10:33:45.418Z,16.88
2018-10-04T10:34:45.404Z,16.88
2018-10-04T10:35:45.388Z,16.88
2018-10-04T10:36:45.361Z,16.88
2018-10-04T10:37:45.350Z,16.88
2018-10-04T10:38:45.329Z,16.88
2018-10-04T10:39:45.345Z,16.88
2018-10-04T10:40:45.286Z,16.88
2018-10-04T10:41:45.261Z,16.88
2018-10-04T10:42:45.242Z,22.50
2018-10-04T10:43:45.223Z,22.50
2018-10-04T10:44:45.204Z,22.50
2018-10-04T10:45:45.183Z,22.50
2018-10-04T10:46:45.164Z,22.50
2018-10-04T10:47:45.152Z,22.50
2018-10-04T10:48:45.124Z,22.50
2018-10-04T10:49:45.109Z,22.50
2018-10-04T10:50:45.091Z,22.50
2018-10-04T10:51:45.069Z,22.50
2018-10-04T10:52:45.050Z,22.50
2018-10-04T10:53:45.029Z,22.50
2018-10-04T10:54:45.010Z,28.13
2018-10-04T10:55:44.995Z,22.50
2018-10-04T10:56:44.969Z,22.50
2018-10-04T10:57:44.951Z,22.50
2018-10-04T10:58:44.931Z,22.50
2018-10-04T10:59:44.916Z,22.50
2018-10-04T11:00:44.892Z,22.50
2018-10-04T11:01:44.874Z,22.50
2018-10-04T11:02:44.862Z,22.50
2018-10-04T11:03:44.835Z,22.50
2018-10-04T11:04:44.816Z,22.50
2018-10-04T11:05:44.801Z,22.50
2018-10-04T11:06:44.786Z,16.88
2018-10-04T11:07:44.759Z,16.88
2018-10-04T11:08:44.741Z,16.88
2018-10-04T11:09:44.718Z,16.88
2018-10-04T11:10:44.701Z,16.88
2018-10-04T11:11:44.680Z,16.88
2018-10-04T11:12:44.660Z,16.88
2018-10-04T11:13:44.640Z,16.88
2018-10-04T11:14:44.622Z,22.50
2018-10-04T11:15:44.605Z,16.88
2018-10-04T11:16:44.584Z,16.88
2018-10-04T11:17:44.621Z,16.88
2018-10-04T11:18:44.547Z,16.88
2018-10-04T11:19:44.527Z,16.88
2018-10-04T11:20:44.510Z,22.50
2018-10-04T11:21:44.487Z,22.50
2018-10-04T11:22:44.474Z,22.50
2018-10-04T11:23:44.450Z,22.50
2018-10-04T11:24:44.434Z,22.50
2018-10-04T11:25:44.430Z,22.50
2018-10-04T11:26:44.393Z,22.50
2018-10-04T11:27:44.374Z,22.50
2018-10-04T11:28:44.354Z,22.50
2018-10-04T11:29:44.334Z,28.13
2018-10-04T11:30:44.316Z,22.50
2018-10-04T11:31:44.297Z,22.50
2018-10-04T11:32:44.277Z,22.50
2018-10-04T11:33:44.259Z,28.13
2018-10-04T11:34:44.247Z,28.13
2018-10-04T11:35:44.220Z,28.13
2018-10-04T11:36:44.202Z,28.13
2018-10-04T11:37:44.182Z,28.13
2018-10-04T11:38:44.172Z,22.50
2018-10-04T11:39:44.146Z,28.13
2018-10-04T11:40:44.133Z,22.50
2018-10-04T11:41:44.109Z,22.50
2018-10-04T11:42:44.088Z,22.50
2018-10-04T11:43:44.073Z,28.13
2018-10-04T11:44:44.050Z,28.13
2018-10-04T11:45:44.030Z,28.13
2018-10-04T11:46:44.013Z,28.13
2018-10-04T11:47:43.993Z,28.13
2018-10-04T11:48:43.974Z,28.13
2018-10-04T11:49:43.955Z,28.13
2018-10-04T11:50:43.940Z,28.13
2018-10-04T11:51:43.916Z,28.13
2018-10-04T11:52:43.899Z,28.13
2018-10-04T11:53:43.880Z,28.13
2018-10-04T11:54:43.933Z,28.13
2018-10-04T11:55:43.843Z,28.13
2018-10-04T11:56:43.880Z,33.75
2018-10-04T11:57:43.809Z,33.75
2018-10-04T11:58:43.791Z,33.75
2018-10-04T11:59:43.769Z,33.75
2018-10-04T12:00:43.750Z,33.75
2018-10-04T12:01:43.754Z,39.38
2018-10-04T12:02:43.762Z,33.75
2018-10-04T12:03:43.697Z,33.75
2018-10-04T12:04:43.673Z,33.75
2018-10-04T12:05:43.657Z,28.13
2018-10-04T12:06:43.657Z,28.13
2018-10-04T12:07:43.619Z,28.13
2018-10-04T12:08:43.610Z,28.13
2018-10-04T12:09:43.581Z,28.13
2018-10-04T12:10:43.571Z,28.13
2018-10-04T12:11:43.559Z,28.13
2018-10-04T12:12:43.582Z,28.13
2018-10-04T12:13:43.511Z,28.13
2018-10-04T12:14:43.493Z,28.13
2018-10-04T12:15:43.474Z,28.13
2018-10-04T12:16:43.449Z,28.13
2018-10-04T12:17:43.430Z,28.13
2018-10-04T12:18:43.498Z,28.13
2018-10-04T12:19:43.393Z,28.13
2018-10-04T12:20:43.373Z,28.13
2018-10-04T12:21:43.356Z,28.13
2018-10-04T12:22:43.340Z,28.13
2018-10-04T12:23:43.319Z,28.13
2018-10-04T12:24:43.327Z,28.13
2018-10-04T12:25:43.285Z,28.13
2018-10-04T12:26:43.265Z,33.75
2018-10-04T12:27:43.257Z,33.75
2018-10-04T12:28:43.226Z,33.75
2018-10-04T12:29:43.215Z,33.75
2018-10-04T12:30:43.238Z,33.75
2018-10-04T12:31:43.172Z,33.75
2018-10-04T12:32:43.151Z,28.13
2018-10-04T12:33:43.133Z,33.75
2018-10-04T12:34:43.130Z,28.13
2018-10-04T12:35:43.099Z,28.13
2018-10-04T12:36:43.077Z,28.13
2018-10-04T12:37:43.060Z,28.13
2018-10-04T12:38:43.049Z,28.13
2018-10-04T12:39:43.021Z,28.13
2018-10-04T12:40:43.002Z,28.13
2018-10-04T12:41:42.984Z,28.13
2018-10-04T12:42:42.968Z,28.13
2018-10-04T12:43:42.948Z,28.13
2018-10-04T12:44:42.928Z,22.50
2018-10-04T12:45:42.909Z,22.50
2018-10-04T12:46:42.893Z,22.50
2018-10-04T12:47:42.874Z,22.50
2018-10-04T12:48:42.857Z,22.50
2018-10-04T12:49:42.836Z,22.50
2018-10-04T12:50:42.821Z,22.50
2018-10-04T12:51:42.800Z,22.50
2018-10-04T12:52:42.884Z,22.50
2018-10-04T12:53:42.761Z,22.50
2018-10-04T12:54:42.748Z,22.50
2018-10-04T12:55:42.728Z,22.50
2018-10-04T12:56:42.727Z,28.13
2018-10-04T12:57:42.692Z,28.13
2018-10-04T12:58:42.670Z,28.13
2018-10-04T12:59:42.654Z,33.75
2018-10-04T13:00:42.700Z,28.13
2018-10-04T13:01:42.615Z,33.75
2018-10-04T13:02:42.602Z,28.13
2018-10-04T13:03:42.581Z,33.75
2018-10-04T13:04:42.558Z,28.13
2018-10-04T13:05:42.543Z,28.13
2018-10-04T13:06:42.714Z,28.13
2018-10-04T13:07:42.506Z,28.13
2018-10-04T13:08:42.491Z,28.13
2018-10-04T13:09:42.470Z,28.13